Time;durP1;ratioP1;P1;durP2;ratioP2;P2;SDS_P1;SDS_P2;PMS_P1;PMS_P2;Temp;Humidity;BMP_temperature;BMP_pressure;BME280_temperature;BME280_humidity;BME280_pressure;Samples;Min_cycle;Max_cycle;Signal;HPM_P1;HPM_P2
2021/05/26 00:01:52;;;;;;;;;5.75;4.50;;;;;20.64;46.72;100716.56;4984424;28;45367;-75
2021/05/26 00:04:18;;;;;;;;;5.00;4.00;;;;;20.64;46.63;100721.00;4983841;28;55991;-75
2021/05/26 00:06:43;;;;;;;;;6.75;5.50;;;;;20.63;47.04;100714.81;4984135;28;45544;-75
2021/05/26 00:09:08;;;;;;;;;8.25;4.25;;;;;20.55;46.58;100691.22;4967610;28;52467;-75
2021/05/26 00:11:34;;;;;;;;;3.25;3.25;;;;;20.60;46.64;100699.88;4992130;28;49454;-75
2021/05/26 00:13:59;;;;;;;;;5.00;4.00;;;;;20.60;46.63;100712.28;4986790;28;47492;-75
2021/05/26 00:16:30;;;;;;;;;4.00;4.00;;;;;20.57;46.89;100699.09;4983658;28;59868;-76
2021/05/26 00:18:55;;;;;;;;;5.75;4.00;;;;;20.53;46.71;100694.84;5001767;28;45311;-75
2021/05/26 00:21:22;;;;;;;;;4.75;4.75;;;;;20.55;46.56;100693.00;4983326;28;45946;-75
2021/05/26 00:23:48;;;;;;;;;6.50;5.75;;;;;20.53;47.16;100686.88;4966396;28;46446;-74
2021/05/26 00:26:13;;;;;;;;;8.00;4.50;;;;;20.51;47.02;100678.13;5000181;28;45391;-74
2021/05/26 00:28:41;;;;;;;;;5.50;4.50;;;;;20.57;47.20;100676.09;4982078;28;45345;-75
2021/05/26 00:31:09;;;;;;;;;5.50;5.00;;;;;20.57;47.21;100673.44;4983852;28;45505;-74
2021/05/26 00:33:34;;;;;;;;;5.00;5.00;;;;;20.56;47.24;100657.59;5001451;28;46022;-75
2021/05/26 00:35:59;;;;;;;;;7.75;5.00;;;;;20.56;47.02;100661.13;4983967;28;45234;-75
2021/05/26 00:38:25;;;;;;;;;6.00;5.00;;;;;20.55;46.87;100653.22;4983603;28;47469;-75
2021/05/26 00:40:50;;;;;;;;;5.50;3.00;;;;;20.52;46.98;100655.97;4966933;28;61041;-75
2021/05/26 00:43:16;;;;;;;;;8.25;5.25;;;;;20.53;47.48;100647.09;4983143;28;48376;-75
2021/05/26 00:45:42;;;;;;;;;5.00;3.75;;;;;20.59;47.59;100645.13;4964139;28;45293;-75
2021/05/26 00:48:08;;;;;;;;;5.50;5.25;;;;;20.57;47.46;100635.47;4978595;28;45322;-75
2021/05/26 00:50:34;;;;;;;;;3.00;3.00;;;;;20.57;47.49;100633.69;4983089;28;59041;-75
2021/05/26 00:53:01;;;;;;;;;3.25;3.00;;;;;20.57;47.71;100630.16;4972461;28;46913;-75
2021/05/26 00:55:26;;;;;;;;;4.25;4.25;;;;;20.58;47.45;100615.97;5000100;28;45345;-75
2021/05/26 00:57:52;;;;;;;;;4.00;4.00;;;;;20.60;47.31;100617.69;4982856;28;52533;-74
2021/05/26 01:00:19;;;;;;;;;5.00;4.00;;;;;20.57;47.02;100608.94;4983567;28;45196;-75
2021/05/26 01:02:50;;;;;;;;;4.00;4.00;;;;;20.54;47.18;100606.41;4964978;28;46972;-75
2021/05/26 01:05:15;;;;;;;;;5.00;3.00;;;;;20.57;47.22;100608.94;4983438;28;45934;-75
2021/05/26 01:07:41;;;;;;;;;4.00;3.50;;;;;20.54;47.38;100594.03;4999718;28;45319;-75
2021/05/26 01:10:08;;;;;;;;;5.00;4.00;;;;;20.52;47.23;100590.56;4999735;28;45500;-75
2021/05/26 01:12:34;;;;;;;;;3.50;3.50;;;;;20.47;47.25;100575.72;4965498;28;48537;-75
2021/05/26 01:15:00;;;;;;;;;6.25;4.00;;;;;20.54;47.17;100587.84;4982986;28;52095;-75
2021/05/26 01:17:25;;;;;;;;;3.25;2.00;;;;;20.51;46.95;100580.88;4999580;28;45424;-75
2021/05/26 01:19:50;;;;;;;;;5.25;3.00;;;;;20.43;47.32;100566.13;4999703;28;45487;-75
2021/05/26 01:22:16;;;;;;;;;4.50;4.50;;;;;20.48;47.36;100577.44;4982449;28;65423;-75
2021/05/26 01:24:41;;;;;;;;;3.75;3.50;;;;;20.51;46.97;100580.88;4983091;28;45388;-75
2021/05/26 01:27:07;;;;;;;;;6.75;5.00;;;;;20.48;47.25;100569.50;4965473;28;45734;-75
2021/05/26 01:29:32;;;;;;;;;3.25;3.25;;;;;20.48;47.18;100566.84;4982546;28;55792;-75
2021/05/26 01:31:59;;;;;;;;;4.50;3.75;;;;;20.40;47.19;100550.31;4977761;28;45932;-75
2021/05/26 01:34:24;;;;;;;;;3.75;3.00;;;;;20.45;47.56;100559.88;4956266;28;45299;-75
2021/05/26 01:36:49;;;;;;;;;3.00;3.00;;;;;20.44;47.31;100550.19;4982641;28;58187;-75
2021/05/26 01:39:16;;;;;;;;;5.50;3.75;;;;;20.44;47.51;100547.53;4982943;28;45457;-74
2021/05/26 01:41:42;;;;;;;;;4.25;4.00;;;;;20.45;47.54;100537.81;4981498;28;47206;-74
2021/05/26 01:44:07;;;;;;;;;3.25;3.25;;;;;20.46;47.14;100540.41;4965968;28;45480;-74
2021/05/26 01:46:33;;;;;;;;;4.25;3.75;;;;;20.42;47.48;100543.19;4982842;28;45239;-74
2021/05/26 01:48:58;;;;;;;;;7.00;4.75;;;;;20.40;47.44;100537.91;4982810;28;45319;-74
2021/05/26 01:51:24;;;;;;;;;4.00;4.00;;;;;20.38;47.69;100533.59;4984531;28;54073;-75
2021/05/26 01:53:52;;;;;;;;;4.50;3.75;;;;;20.40;47.48;100526.44;4955512;28;45272;-75
2021/05/26 01:56:18;;;;;;;;;4.25;3.00;;;;;20.37;47.24;100524.78;4982935;28;45442;-75
2021/05/26 01:58:44;;;;;;;;;4.75;3.00;;;;;20.35;47.57;100531.91;4982378;28;45484;-74
2021/05/26 02:01:10;;;;;;;;;5.00;4.00;;;;;20.36;47.89;100512.44;4980966;28;62567;-75
2021/05/26 02:03:42;;;;;;;;;4.50;4.50;;;;;20.36;47.93;100514.22;4982718;28;45349;-75
2021/05/26 02:06:07;;;;;;;;;5.50;3.00;;;;;20.39;47.25;100512.31;4965867;28;45382;-73
2021/05/26 02:08:33;;;;;;;;;3.75;3.00;;;;;20.37;47.57;100510.66;4982633;28;45453;-73
2021/05/26 02:13:43;;;;;;;;;3.00;3.00;;;;;20.38;48.01;100502.66;4998973;28;45293;-74
2021/05/26 02:16:08;;;;;;;;;6.50;3.75;;;;;20.33;47.58;100501.97;4999727;28;51145;-74
2021/05/26 02:18:33;;;;;;;;;2.25;2.25;;;;;20.33;47.55;100500.19;4982479;28;45667;-73
2021/05/26 02:20:59;;;;;;;;;3.00;3.00;;;;;20.30;47.62;100494.97;4982171;28;46913;-74
2021/05/26 02:23:24;;;;;;;;;7.00;5.00;;;;;20.28;47.66;100496.81;4999597;28;58025;-73
2021/05/26 02:25:50;;;;;;;;;4.25;3.50;;;;;20.26;47.58;100482.75;4978898;28;45360;-74
2021/05/26 02:28:15;;;;;;;;;2.00;2.00;;;;;20.28;47.76;100488.84;4973491;28;55212;-73
2021/05/26 02:30:40;;;;;;;;;4.50;4.00;;;;;20.22;47.60;100481.09;4981336;28;65442;-73
2021/05/26 02:33:06;;;;;;;;;4.75;3.00;;;;;20.21;47.58;100478.50;4963120;28;45329;-74
2021/05/26 02:35:31;;;;;;;;;4.50;2.75;;;;;20.20;48.06;100474.13;4960132;28;45723;-74
2021/05/26 02:37:57;;;;;;;;;3.75;2.75;;;;;20.22;48.40;100475.81;4986817;28;45278;-73
2021/05/26 02:40:22;;;;;;;;;2.50;2.50;;;;;20.24;48.02;100474.00;4963369;28;47043;-73
2021/05/26 02:42:48;;;;;;;;;3.50;3.50;;;;;20.25;48.20;100464.25;4981873;28;45736;-73
2021/05/26 02:45:13;;;;;;;;;3.00;3.00;;;;;20.27;47.94;100465.06;4984558;28;54651;-73
2021/05/26 02:47:39;;;;;;;;;3.00;3.00;;;;;20.26;47.58;100476.59;4969243;28;45729;-73
2021/05/26 02:50:05;;;;;;;;;3.00;3.00;;;;;20.18;47.56;100465.38;4981982;28;51731;-73
2021/05/26 02:52:30;;;;;;;;;4.75;3.00;;;;;20.18;47.69;100463.59;4990960;28;45261;-73
2021/05/26 02:54:58;;;;;;;;;2.75;2.75;;;;;20.16;47.88;100462.78;4985575;28;45236;-73
2021/05/26 02:57:23;;;;;;;;;2.75;1.25;;;;;20.15;47.98;100452.22;4985221;28;45725;-73
2021/05/26 02:59:48;;;;;;;;;3.00;2.00;;;;;20.15;47.98;100473.41;4965587;28;47240;-74
2021/05/26 03:02:14;;;;;;;;;3.50;3.00;;;;;20.15;48.07;100463.69;4940847;28;45420;-73
2021/05/26 03:04:39;;;;;;;;;2.00;2.00;;;;;20.09;47.99;100469.22;4970390;28;59076;-74
2021/05/26 03:07:05;;;;;;;;;2.75;2.75;;;;;20.13;48.16;100476.13;4983489;28;53258;-73
2021/05/26 03:09:30;;;;;;;;;2.50;2.50;;;;;20.16;47.87;100472.53;4949301;28;48478;-74
2021/05/26 03:11:55;;;;;;;;;2.50;2.50;;;;;20.13;47.68;100462.88;4976058;28;45476;-73
2021/05/26 03:14:21;;;;;;;;;6.50;4.00;;;;;20.16;48.38;100460.16;5002702;28;45295;-73
2021/05/26 03:16:49;;;;;;;;;2.00;1.25;;;;;20.14;48.13;100463.75;4985092;28;45214;-74
2021/05/26 03:19:14;;;;;;;;;3.50;3.00;;;;;20.11;48.02;100454.13;4984864;28;45473;-73
2021/05/26 03:21:40;;;;;;;;;4.75;2.75;;;;;20.10;47.82;100443.59;4984671;28;54469;-74
2021/05/26 03:24:07;;;;;;;;;4.75;3.75;;;;;20.15;48.38;100458.38;4985055;28;45274;-74
2021/05/26 03:26:33;;;;;;;;;3.25;2.50;;;;;19.98;47.79;100426.31;5001198;28;45558;-74
2021/05/26 03:29:05;;;;;;;;;3.00;3.00;;;;;20.16;48.03;100457.50;4964855;28;45880;-74
2021/05/26 03:31:31;;;;;;;;;4.50;2.00;;;;;20.17;48.26;100450.41;4978225;28;45467;-73
2021/05/26 03:33:56;;;;;;;;;3.00;3.00;;;;;20.16;48.00;100453.97;4981526;28;45244;-73
2021/05/26 03:36:22;;;;;;;;;3.00;3.00;;;;;20.20;48.57;100450.28;4974198;28;45715;-72
2021/05/26 03:38:47;;;;;;;;;3.00;3.00;;;;;20.20;48.23;100450.28;4980326;28;48357;-72
2021/05/26 03:41:12;;;;;;;;;4.00;4.00;;;;;20.18;48.30;100438.88;4994449;28;45451;-73
2021/05/26 03:43:38;;;;;;;;;4.25;2.50;;;;;20.23;48.24;100445.72;5000341;28;45493;-72
2021/05/26 03:46:03;;;;;;;;;3.50;3.00;;;;;20.22;48.42;100440.50;5000366;28;61918;-73
2021/05/26 03:48:29;;;;;;;;;5.00;4.00;;;;;20.24;48.18;100442.19;5000878;28;47809;-73
2021/05/26 03:50:54;;;;;;;;;2.00;2.00;;;;;20.24;48.14;100430.69;4984334;28;62171;-72
2021/05/26 03:53:19;;;;;;;;;3.25;2.00;;;;;20.22;47.84;100433.41;4983730;28;58040;-72
2021/05/26 03:55:45;;;;;;;;;4.00;3.00;;;;;20.22;47.89;100444.00;4954196;28;49852;-73
2021/05/26 03:58:11;;;;;;;;;4.00;2.50;;;;;20.21;48.03;100434.34;4983878;28;45389;-73
2021/05/26 04:00:36;;;;;;;;;3.00;2.75;;;;;20.17;48.09;100432.72;4984717;28;45285;-73
2021/05/26 04:03:02;;;;;;;;;3.50;2.00;;;;;20.20;48.01;100435.25;4967961;28;45298;-73
2021/05/26 04:05:27;;;;;;;;;2.50;2.00;;;;;20.22;48.30;100433.41;5000064;28;61924;-73
2021/05/26 04:07:53;;;;;;;;;2.00;1.00;;;;;20.21;48.07;100431.69;4983495;28;64856;-72
2021/05/26 04:10:18;;;;;;;;;2.00;1.50;;;;;20.21;48.19;100430.81;5001761;28;50054;-72
2021/05/26 04:12:43;;;;;;;;;2.75;2.75;;;;;20.25;48.42;100433.31;5000273;28;45493;-72
2021/05/26 04:15:09;;;;;;;;;0.75;0.75;;;;;20.26;48.63;100436.84;4984209;28;45479;-73
2021/05/26 04:17:35;;;;;;;;;2.75;2.75;;;;;20.24;48.61;100431.59;4983914;28;46107;-72
2021/05/26 04:20:04;;;;;;;;;2.75;1.00;;;;;20.26;48.45;100427.09;4984215;28;45218;-72
2021/05/26 04:22:31;;;;;;;;;1.00;1.00;;;;;20.30;48.53;100423.41;4968444;28;45373;-72
2021/05/26 04:25:11;;;;;;;;;1.00;1.00;;;;;20.30;48.38;100436.66;4983974;28;45457;-74
2021/05/26 04:27:36;;;;;;;;;1.00;1.00;;;;;20.29;47.91;100420.81;4981345;28;47238;-73
2021/05/26 04:30:03;;;;;;;;;1.00;1.00;;;;;20.30;47.99;100430.50;4956582;28;46291;-74
2021/05/26 04:32:28;;;;;;;;;2.00;2.00;;;;;20.26;48.09;100418.28;4963442;28;45440;-74
2021/05/26 04:34:54;;;;;;;;;0.50;0.50;;;;;20.29;47.82;100429.63;4988701;28;56416;-74
2021/05/26 04:37:19;;;;;;;;;1.00;1.00;;;;;20.26;48.13;100434.19;4982559;28;45419;-73
2021/05/26 04:39:45;;;;;;;;;1.00;1.00;;;;;20.24;47.91;100425.41;4983861;28;45357;-74
2021/05/26 04:42:10;;;;;;;;;2.00;2.00;;;;;20.24;48.19;100431.59;4964170;28;45332;-74
2021/05/26 04:44:36;;;;;;;;;1.00;1.00;;;;;20.26;48.00;100423.59;4975988;28;45495;-74
2021/05/26 04:47:01;;;;;;;;;1.00;1.00;;;;;20.21;47.95;100429.03;4963879;28;48198;-74
2021/05/26 04:49:27;;;;;;;;;0.75;0.75;;;;;20.21;48.11;100429.03;4976379;28;45281;-74
2021/05/26 04:51:52;;;;;;;;;1.00;0.00;;;;;20.19;48.14;100438.81;4983546;28;45452;-74
2021/05/26 04:54:18;;;;;;;;;3.00;0.25;;;;;20.17;48.22;100445.97;4983538;28;45291;-73
2021/05/26 04:56:44;;;;;;;;;1.00;1.00;;;;;20.19;48.38;100438.81;4967041;28;46773;-74
2021/05/26 04:59:11;;;;;;;;;1.00;1.00;;;;;20.18;48.17;100436.25;4963988;28;45258;-75
2021/05/26 05:01:36;;;;;;;;;0.00;0.00;;;;;20.25;47.93;100443.06;4964154;28;45357;-72
2021/05/26 05:04:02;;;;;;;;;1.00;1.00;;;;;20.24;47.97;100446.59;4989598;28;45506;-73
2021/05/26 05:06:27;;;;;;;;;1.00;0.25;;;;;20.25;47.96;100440.41;4966056;28;47391;-73
2021/05/26 05:08:52;;;;;;;;;1.00;1.00;;;;;20.30;47.75;100452.56;4999784;28;47025;-73
2021/05/26 05:11:18;;;;;;;;;0.00;0.00;;;;;20.27;47.85;100452.66;5000992;28;45524;-72
2021/05/26 05:13:43;;;;;;;;;0.75;0.00;;;;;20.28;48.00;100466.78;4983129;28;45341;-74
2021/05/26 05:16:09;;;;;;;;;0.00;0.00;;;;;20.24;48.02;100466.03;4983087;28;45469;-74
2021/05/26 05:18:34;;;;;;;;;1.00;1.00;;;;;20.23;47.96;100479.31;4982656;28;60349;-74
2021/05/26 05:21:00;;;;;;;;;2.25;0.75;;;;;20.27;48.33;100473.88;4983127;28;45994;-79
2021/05/26 05:23:25;;;;;;;;;1.50;0.50;;;;;20.35;49.28;100480.69;5002380;28;45479;-77
2021/05/26 05:25:50;;;;;;;;;2.00;1.50;;;;;20.50;50.70;100488.13;4984800;28;46064;-71
2021/05/26 05:28:16;;;;;;;;;1.00;1.00;;;;;20.62;50.51;100489.47;4982866;28;45434;-72
2021/05/26 05:30:45;;;;;;;;;1.00;1.00;;;;;20.73;50.90;100489.94;4983059;28;45422;-73
2021/05/26 05:33:10;;;;;;;;;5.00;3.00;;;;;20.87;52.78;100512.41;4983918;28;45254;-74
2021/05/26 05:35:36;;;;;;;;;2.50;2.50;;;;;21.00;53.23;100514.59;4979318;28;47233;-73
2021/05/26 05:38:01;;;;;;;;;3.00;3.00;;;;;21.09;53.03;100515.09;4992011;28;46017;-69
2021/05/26 05:40:26;;;;;;;;;3.25;3.25;;;;;21.17;53.46;100515.69;4999165;28;45322;-69
2021/05/26 05:42:52;;;;;;;;;2.00;1.25;;;;;21.28;53.49;100507.34;5000081;28;45625;-71
2021/05/26 05:45:17;;;;;;;;;4.75;3.00;;;;;21.40;53.27;100513.97;4979278;28;47014;-71
2021/05/26 05:47:43;;;;;;;;;2.25;2.25;;;;;21.48;53.39;100529.63;4958180;28;45997;-69
2021/05/26 05:50:15;;;;;;;;;3.25;2.00;;;;;21.54;53.12;100532.88;4963189;28;45403;-68
2021/05/26 05:52:41;;;;;;;;;3.00;3.00;;;;;21.60;52.71;100535.28;4986533;28;45293;-70
2021/05/26 05:55:08;;;;;;;;;3.50;2.00;;;;;21.61;53.40;100536.16;4962989;28;45561;-69
2021/05/26 05:57:33;;;;;;;;;1.50;1.25;;;;;21.68;53.40;100546.47;4962985;28;45431;-71
2021/05/26 05:59:59;;;;;;;;;2.00;2.00;;;;;21.73;54.08;100547.19;4962281;28;65240;-73
2021/05/26 06:02:24;;;;;;;;;5.50;4.00;;;;;21.79;55.36;100548.69;4959198;28;45603;-72
2021/05/26 06:04:52;;;;;;;;;2.75;2.75;;;;;21.76;54.73;100542.66;4988014;28;48655;-74
2021/05/26 06:07:18;;;;;;;;;8.25;4.00;;;;;21.82;54.83;100561.03;4973748;28;45264;-71
2021/05/26 06:09:43;;;;;;;;;3.00;2.75;;;;;21.82;55.18;100551.25;4982492;28;45581;-73
2021/05/26 06:12:09;;;;;;;;;5.25;3.00;;;;;21.82;54.59;100564.53;4982210;28;45603;-76
2021/05/26 06:14:34;;;;;;;;;5.00;3.50;;;;;21.79;54.41;100558.47;4978997;28;46625;-73
2021/05/26 06:17:00;;;;;;;;;3.00;3.00;;;;;21.79;54.25;100561.97;4988968;28;45695;-77
2021/05/26 06:19:25;;;;;;;;;5.75;1.75;;;;;21.76;54.45;100564.78;4980137;28;45258;-77
2021/05/26 06:21:53;;;;;;;;;4.00;2.00;;;;;21.75;53.96;100571.00;4962037;28;54110;-77
2021/05/26 06:24:19;;;;;;;;;2.00;2.00;;;;;21.75;54.15;100586.97;4985695;28;46106;-82
2021/05/26 06:26:47;;;;;;;;;3.00;1.75;;;;;21.69;52.28;100585.41;4966204;28;50137;-75
2021/05/26 06:29:13;;;;;;;;;3.50;1.50;;;;;21.54;50.62;100578.00;4982465;28;45391;-75
2021/05/26 06:31:41;;;;;;;;;3.25;2.00;;;;;21.36;50.64;100576.06;4995100;28;55239;-76
2021/05/26 06:34:07;;;;;;;;;2.25;1.75;;;;;21.32;51.70;100583.28;4966753;28;46486;-84
2021/05/26 06:36:36;;;;;;;;;2.00;2.00;;;;;21.24;50.15;100585.34;4992199;28;45271;-75
2021/05/26 06:39:02;;;;;;;;;1.75;1.00;;;;;21.17;50.44;100578.50;4973307;28;45531;-78
2021/05/26 06:41:27;;;;;;;;;2.25;1.00;;;;;21.20;50.45;100607.63;5001986;28;45989;-75
2021/05/26 06:43:53;;;;;;;;;1.50;1.50;;;;;21.10;49.57;100609.72;5002705;28;45317;-79
2021/05/26 06:46:18;;;;;;;;;1.00;1.00;;;;;21.05;49.99;100626.75;4982332;28;45328;-74
2021/05/26 06:48:44;;;;;;;;;1.50;1.50;;;;;20.98;49.74;100612.81;5001580;28;45525;-74
2021/05/26 06:51:09;;;;;;;;;3.00;2.00;;;;;20.97;49.38;100632.31;4987281;28;59706;-74
2021/05/26 06:53:34;;;;;;;;;1.00;1.00;;;;;20.92;50.11;100633.38;4965460;28;62390;-75
2021/05/26 06:56:00;;;;;;;;;1.00;1.00;;;;;20.92;49.28;100642.22;4995942;28;57298;-75
2021/05/26 06:58:25;;;;;;;;;1.50;1.00;;;;;20.85;49.16;100646.03;4985164;28;45330;-74
2021/05/26 07:00:51;;;;;;;;;3.00;0.00;;;;;20.82;49.18;100652.28;5003107;28;45487;-74
2021/05/26 07:03:16;;;;;;;;;1.00;0.75;;;;;20.82;49.13;100660.25;4982089;28;45567;-75
2021/05/26 07:05:42;;;;;;;;;2.00;1.00;;;;;20.83;49.18;100661.09;4974693;28;45476;-74
2021/05/26 07:08:07;;;;;;;;;0.50;0.50;;;;;20.81;48.39;100666.47;4984507;28;46916;-74
2021/05/26 07:10:33;;;;;;;;;2.00;1.00;;;;;20.79;48.07;100664.78;5002803;28;45502;-75
2021/05/26 07:12:58;;;;;;;;;0.25;0.25;;;;;20.78;49.09;100657.75;4983978;28;45360;-75
2021/05/26 07:15:24;;;;;;;;;1.25;0.75;;;;;20.75;48.28;100661.38;4984262;28;66550;-75
2021/05/26 07:17:50;;;;;;;;;1.50;1.00;;;;;20.75;48.38;100676.41;4981633;28;45416;-76
2021/05/26 07:20:15;;;;;;;;;1.25;0.50;;;;;20.74;48.86;100666.72;4976631;28;45496;-75
2021/05/26 07:22:41;;;;;;;;;1.00;1.00;;;;;20.72;48.60;100668.56;4968269;28;47414;-75
2021/05/26 07:25:07;;;;;;;;;2.50;1.00;;;;;20.69;48.29;100680.16;4968627;28;46251;-76
2021/05/26 07:27:32;;;;;;;;;1.25;1.25;;;;;20.71;48.78;100682.75;4984647;28;46023;-75
2021/05/26 07:29:58;;;;;;;;;3.00;0.50;;;;;20.68;47.94;100683.72;4980717;28;45483;-75
2021/05/26 07:32:23;;;;;;;;;2.00;1.00;;;;;20.68;47.95;100678.44;4951929;28;47853;-75
2021/05/26 07:34:49;;;;;;;;;1.00;0.50;;;;;20.62;48.28;100675.09;4961353;28;45551;-74
2021/05/26 07:37:14;;;;;;;;;2.25;0.25;;;;;20.70;48.34;100695.16;4995407;28;45237;-75
2021/05/26 07:39:40;;;;;;;;;1.25;1.00;;;;;20.72;47.80;100690.66;4957606;28;45383;-74
2021/05/26 07:42:06;;;;;;;;;3.00;1.25;;;;;20.73;47.96;100695.03;4975739;28;48373;-76
2021/05/26 07:44:32;;;;;;;;;0.25;0.25;;;;;20.76;46.96;100688.75;4976235;28;45502;-70
2021/05/26 07:46:57;;;;;;;;;1.00;1.00;;;;;20.77;47.35;100695.81;5000714;28;45566;-77
2021/05/26 07:49:23;;;;;;;;;1.00;1.00;;;;;20.81;47.56;100708.91;4984517;28;45464;-77
2021/05/26 07:51:54;;;;;;;;;1.00;1.00;;;;;20.84;47.25;100702.63;4990849;28;45841;-76
2021/05/26 07:54:21;;;;;;;;;3.00;1.25;;;;;20.87;47.54;100695.44;4984857;28;45316;-75
2021/05/26 07:56:47;;;;;;;;;3.50;1.50;;;;;20.93;47.17;100702.31;4981122;28;45306;-73
2021/05/26 07:59:12;;;;;;;;;4.50;2.00;;;;;20.96;47.35;100709.31;4975955;28;45484;-74
2021/05/26 08:01:38;;;;;;;;;1.50;1.50;;;;;20.99;47.41;100707.41;4983792;28;50938;-74
2021/05/26 08:04:03;;;;;;;;;1.50;1.25;;;;;21.01;46.99;100721.50;4967617;28;45315;-75
2021/05/26 08:06:29;;;;;;;;;2.00;2.00;;;;;20.81;47.33;100687.69;4980903;28;45452;-76
2021/05/26 08:08:54;;;;;;;;;4.25;3.25;;;;;20.97;46.85;100711.06;4956753;28;58762;-78
2021/05/26 08:11:20;;;;;;;;;4.00;2.50;;;;;20.93;47.08;100725.31;4999245;28;45510;-75
2021/05/26 08:13:45;;;;;;;;;1.75;1.75;;;;;20.91;46.79;100730.69;4979288;28;45532;-77
2021/05/26 08:16:11;;;;;;;;;2.50;2.00;;;;;20.90;46.74;100728.94;4963610;28;45492;-81
2021/05/26 08:18:36;;;;;;;;;1.00;1.00;;;;;20.90;46.64;100728.94;4974189;28;45533;-76
2021/05/26 08:21:02;;;;;;;;;2.50;2.50;;;;;20.85;46.67;100722.97;4996117;28;46679;-75
2021/05/26 08:23:28;;;;;;;;;2.00;2.00;;;;;20.96;46.80;100733.19;4980269;28;46283;-76
2021/05/26 08:25:53;;;;;;;;;1.25;1.25;;;;;21.03;47.04;100729.44;4975401;28;45604;-76
2021/05/26 08:28:19;;;;;;;;;2.50;2.50;;;;;21.07;46.74;100731.91;4984247;28;45463;-77
2021/05/26 08:30:45;;;;;;;;;4.00;2.00;;;;;21.08;46.00;100746.03;4984748;28;46063;-78
2021/05/26 08:33:11;;;;;;;;;2.00;2.00;;;;;21.07;46.08;100741.66;4994502;28;45591;-76
2021/05/26 08:35:36;;;;;;;;;1.25;1.25;;;;;21.01;46.19;100750.69;4992491;28;45347;-76
2021/05/26 08:38:02;;;;;;;;;1.75;1.75;;;;;21.00;46.16;100751.59;4982317;28;45531;-76
2021/05/26 08:40:28;;;;;;;;;4.75;2.25;;;;;21.03;45.79;100753.31;4988143;28;45388;-77
2021/05/26 08:42:54;;;;;;;;;0.25;0.25;;;;;21.00;45.57;100751.59;4987506;28;45475;-78
2021/05/26 08:45:19;;;;;;;;;1.00;1.00;;;;;21.00;45.97;100743.63;4988716;28;45580;-77
2021/05/26 08:47:45;;;;;;;;;1.25;1.00;;;;;21.03;46.29;100755.97;4969070;28;45479;-77
2021/05/26 08:50:13;;;;;;;;;4.00;2.00;;;;;21.05;46.22;100752.31;4971119;28;45549;-80
2021/05/26 08:52:39;;;;;;;;;2.75;2.00;;;;;21.04;46.11;100736.47;4964241;28;45446;-79
2021/05/26 08:55:05;;;;;;;;;2.50;1.50;;;;;21.13;45.11;100744.97;4968384;28;45358;-74
2021/05/26 08:57:30;;;;;;;;;1.00;1.00;;;;;21.13;45.48;100746.75;4969682;28;45740;-75
2021/05/26 08:59:56;;;;;;;;;1.00;1.00;;;;;21.12;45.10;100734.41;4963172;28;47899;-74
2021/05/26 09:02:21;;;;;;;;;1.75;1.75;;;;;21.14;45.45;100737.88;4982370;28;45345;-78
2021/05/26 09:04:47;;;;;;;;;1.25;1.25;;;;;21.13;45.20;100744.97;4970905;28;45433;-75
2021/05/26 09:07:19;;;;;;;;;2.00;2.00;;;;;21.09;45.59;100745.97;4969842;28;46631;-78
2021/05/26 09:09:46;;;;;;;;;1.25;1.00;;;;;21.07;45.59;100753.13;4960777;28;47540;-76
2021/05/26 09:12:24;;;;;;;;;1.75;1.00;;;;;21.04;44.50;100750.59;4981012;28;45467;-78
2021/05/26 09:14:49;;;;;;;;;3.00;2.00;;;;;21.11;45.00;100753.88;4982646;28;45491;-77
2021/05/26 09:17:14;;;;;;;;;2.00;1.50;;;;;21.12;44.69;100753.00;4983395;28;45520;-76
2021/05/26 09:19:40;;;;;;;;;1.00;1.00;;;;;21.18;44.29;100748.31;4990852;28;45629;-78
2021/05/26 09:22:13;;;;;;;;;2.25;2.25;;;;;21.17;44.43;100738.63;4979747;28;45459;-77
2021/05/26 09:24:38;;;;;;;;;1.50;1.50;;;;;21.23;43.75;100736.69;4988547;28;45456;-76
2021/05/26 09:27:05;;;;;;;;;4.25;1.50;;;;;21.30;44.60;100735.59;4976495;28;45820;-74
2021/05/26 09:29:35;;;;;;;;;3.50;2.00;;;;;21.42;44.42;100748.44;4996916;28;47721;-76
2021/05/26 09:32:24;;;;;;;;;2.50;2.00;;;;;21.47;44.27;100746.50;4994820;28;45458;-75
2021/05/26 09:34:50;;;;;;;;;2.00;2.00;;;;;21.48;44.04;100750.00;4990238;28;45366;-77
2021/05/26 09:37:17;;;;;;;;;2.00;2.00;;;;;21.47;44.07;100756.25;4969741;28;45564;-77
2021/05/26 09:39:53;;;;;;;;;2.50;1.50;;;;;21.45;44.06;100761.59;4982670;28;46146;-76
2021/05/26 09:42:48;;;;;;;;;3.50;2.25;;;;;21.43;44.13;100763.44;4981768;28;45501;-77
2021/05/26 09:45:25;;;;;;;;;2.00;2.00;;;;;21.40;44.00;100764.41;4971762;28;45301;-77
2021/05/26 09:47:54;;;;;;;;;2.25;2.25;;;;;21.31;43.94;100743.50;4976126;28;45539;-77
2021/05/26 09:50:33;;;;;;;;;2.00;2.00;;;;;21.53;43.78;100778.13;4966572;28;45540;-76
2021/05/26 09:53:12;;;;;;;;;2.00;2.00;;;;;21.55;43.49;100768.34;4986478;28;45647;-75
2021/05/26 09:55:46;;;;;;;;;1.75;1.75;;;;;21.59;44.06;100771.72;4954961;28;45403;-76
2021/05/26 09:58:13;;;;;;;;;2.75;2.00;;;;;21.55;43.48;100760.34;4969020;28;45671;-75
2021/05/26 10:00:45;;;;;;;;;2.00;2.00;;;;;21.58;43.35;100770.88;4956478;28;46997;-78
2021/05/26 10:03:10;;;;;;;;;2.50;1.75;;;;;21.56;43.18;100764.75;4974207;28;45470;-71
2021/05/26 10:05:36;;;;;;;;;3.00;2.00;;;;;21.54;42.77;100771.88;4972073;28;45392;-77
2021/05/26 10:08:06;;;;;;;;;2.00;1.75;;;;;21.56;42.40;100783.34;4956479;28;45549;-72
2021/05/26 10:10:32;;;;;;;;;4.25;3.50;;;;;21.51;42.91;100790.59;4987225;28;47299;-74
2021/05/26 10:13:04;;;;;;;;;2.75;2.00;;;;;21.32;43.35;100753.19;4955497;28;45338;-73
2021/05/26 10:15:58;;;;;;;;;3.50;3.00;;;;;21.54;43.13;100789.59;4960629;28;45325;-73
2021/05/26 10:18:36;;;;;;;;;;;;;;;;;;;;;
2021/05/26 10:21:08;;;;;;;;;2.00;2.00;;;;;21.47;43.59;100761.56;4966316;28;75215;-80
2021/05/26 10:23:34;;;;;;;;;2.75;2.75;;;;;21.59;42.74;100782.34;4972481;28;45961;-80
2021/05/26 10:25:59;;;;;;;;;1.50;1.50;;;;;21.67;42.64;100796.22;4954028;28;45609;-76
2021/05/26 10:28:31;;;;;;;;;2.00;2.00;;;;;21.65;42.71;100796.28;4973114;28;45444;-76
2021/05/26 10:31:01;;;;;;;;;2.50;2.50;;;;;21.38;42.50;100753.00;4968770;28;46505;-74
2021/05/26 10:33:49;;;;;;;;;3.00;2.00;;;;;21.67;42.95;100788.25;4972941;28;45483;-76
2021/05/26 10:36:15;;;;;;;;;6.00;3.00;;;;;21.61;42.58;100785.81;4952047;28;45341;-76
2021/05/26 10:39:00;;;;;;;;;3.00;2.00;;;;;21.64;42.61;100799.88;4951375;28;45519;-76
2021/05/26 10:41:26;;;;;;;;;2.00;2.00;;;;;21.59;42.44;100796.50;4976060;28;45757;-76
2021/05/26 10:43:58;;;;;;;;;3.00;3.00;;;;;21.47;42.31;100788.97;4952283;28;45419;-75
2021/05/26 10:46:35;;;;;;;;;3.25;3.25;;;;;21.50;42.25;100806.56;4959328;28;45362;-75
2021/05/26 10:49:11;;;;;;;;;4.00;4.00;;;;;21.48;41.99;100811.09;4956603;28;45301;-79
2021/05/26 10:51:57;;;;;;;;;3.50;3.50;;;;;21.31;42.25;100777.16;4966928;28;45598;-77
2021/05/26 10:54:40;;;;;;;;;4.00;4.00;;;;;21.45;42.17;100814.69;4967950;28;45554;-75
2021/05/26 10:57:07;;;;;;;;;2.75;2.75;;;;;21.49;42.51;100811.03;4991292;28;45620;-76
2021/05/26 11:02:27;;;;;;;;;3.75;3.75;;;;;21.59;41.43;100791.19;4962123;28;45993;-78
2021/05/26 11:11:24;;;;;;;;;5.00;3.00;;;;;21.65;42.40;100798.06;4974534;28;45370;-74
2021/05/26 11:14:14;;;;;;;;;4.50;3.25;;;;;21.64;41.30;100796.34;4982043;28;47095;-72
2021/05/26 11:16:46;;;;;;;;;5.00;4.75;;;;;21.62;41.95;100795.50;4974075;28;45458;-71
2021/05/26 11:19:13;;;;;;;;;5.00;4.00;;;;;21.63;42.07;100791.94;4978547;28;45687;-71
2021/05/26 11:21:39;;;;;;;;;4.75;4.00;;;;;21.66;42.31;100797.16;4974478;28;45515;-70
2021/05/26 11:24:05;;;;;;;;;5.75;5.75;;;;;21.70;41.86;100790.78;4974225;28;45415;-70
2021/05/26 11:26:31;;;;;;;;;6.00;6.00;;;;;21.70;41.83;100786.34;4972938;28;45333;-76
2021/05/26 11:28:57;;;;;;;;;4.00;4.00;;;;;21.78;42.41;100787.88;4959772;28;45716;-74
2021/05/26 11:31:22;;;;;;;;;7.25;5.75;;;;;21.76;42.13;100790.59;4958078;28;45530;-74
2021/05/26 11:33:57;;;;;;;;;7.00;6.75;;;;;21.72;41.51;100794.28;4977202;28;45554;-73
2021/05/26 11:36:41;;;;;;;;;7.75;6.75;;;;;21.76;42.05;100797.69;4966237;28;45577;-73
2021/05/26 11:39:16;;;;;;;;;6.25;6.25;;;;;21.78;43.20;100804.66;4993287;28;45650;-73